Terminal Aerodrome Forecast
Issued by NWS

Home | Current Version | Previous Version | Text Only | Print | Product List | Glossary On
Versions: 1 2 3 4 5 6 7 8 9 10 11 12
000
FTUS45 KRIW 272324
TAFLND
TAF
KLND 272324Z 2800/2824 29009KT P6SM VCTS SCT080CB BKN150
     FM280200 26007KT P6SM SCT120
     FM282300 VRB06KT P6SM VCSH SCT080=

USA.gov is the U.S. government's official web portal to all federal, state and local government web resources and services.